sensor_id;sensor_type;location;lat;lon;timestamp;P1;durP1;ratioP1;P2;durP2;ratioP2
77415;SDS011;66489;49.230;8.520;2023-02-13T05:02:44;40.10;;;18.05;;
77415;SDS011;66489;49.230;8.520;2023-02-13T05:05:11;40.05;;;18.00;;
77415;SDS011;66489;49.230;8.520;2023-02-13T05:07:37;39.90;;;18.33;;
77415;SDS011;66489;49.230;8.520;2023-02-13T05:10:04;39.13;;;17.73;;
77415;SDS011;66489;49.230;8.520;2023-02-13T05:12:31;40.53;;;18.65;;
77415;SDS011;66489;49.230;8.520;2023-02-13T05:14:57;36.47;;;16.75;;
77415;SDS011;66489;49.230;8.520;2023-02-13T05:17:24;37.40;;;17.42;;
77415;SDS011;66489;49.230;8.520;2023-02-13T05:19:53;39.58;;;18.20;;
77415;SDS011;66489;49.230;8.520;2023-02-13T05:22:19;40.08;;;18.15;;
77415;SDS011;66489;49.230;8.520;2023-02-13T05:25:05;42.80;;;17.58;;
77415;SDS011;66489;49.230;8.520;2023-02-13T05:27:31;41.58;;;19.05;;
77415;SDS011;66489;49.230;8.520;2023-02-13T05:29:58;44.03;;;18.08;;
77415;SDS011;66489;49.230;8.520;2023-02-13T05:32:24;43.90;;;20.27;;
77415;SDS011;66489;49.230;8.520;2023-02-13T05:34:51;44.17;;;20.40;;
77415;SDS011;66489;49.230;8.520;2023-02-13T05:37:17;41.53;;;18.33;;
77415;SDS011;66489;49.230;8.520;2023-02-13T05:39:44;45.72;;;19.48;;
77415;SDS011;66489;49.230;8.520;2023-02-13T05:42:10;42.53;;;19.67;;
77415;SDS011;66489;49.230;8.520;2023-02-13T05:44:37;43.97;;;21.27;;
77415;SDS011;66489;49.230;8.520;2023-02-13T05:47:03;50.30;;;22.45;;
77415;SDS011;66489;49.230;8.520;2023-02-13T05:49:31;48.10;;;21.92;;
77415;SDS011;66489;49.230;8.520;2023-02-13T05:51:58;49.78;;;20.70;;
77415;SDS011;66489;49.230;8.520;2023-02-13T05:54:24;51.42;;;21.27;;
77415;SDS011;66489;49.230;8.520;2023-02-13T05:56:51;46.85;;;20.77;;
77415;SDS011;66489;49.230;8.520;2023-02-13T05:59:17;42.75;;;19.52;;
77415;SDS011;66489;49.230;8.520;2023-02-13T06:01:44;44.38;;;19.92;;
77415;SDS011;66489;49.230;8.520;2023-02-13T06:04:10;43.38;;;19.50;;
77415;SDS011;66489;49.230;8.520;2023-02-13T06:06:37;47.75;;;20.08;;
77415;SDS011;66489;49.230;8.520;2023-02-13T06:09:03;54.20;;;20.95;;
77415;SDS011;66489;49.230;8.520;2023-02-13T06:11:30;43.55;;;19.30;;
77415;SDS011;66489;49.230;8.520;2023-02-13T06:13:56;42.00;;;18.23;;
77415;SDS011;66489;49.230;8.520;2023-02-13T06:16:23;39.47;;;18.13;;
77415;SDS011;66489;49.230;8.520;2023-02-13T06:18:49;42.80;;;19.05;;
77415;SDS011;66489;49.230;8.520;2023-02-13T06:21:16;42.05;;;18.40;;
77415;SDS011;66489;49.230;8.520;2023-02-13T06:23:42;40.75;;;18.40;;
77415;SDS011;66489;49.230;8.520;2023-02-13T06:26:09;43.03;;;18.98;;
77415;SDS011;66489;49.230;8.520;2023-02-13T06:28:35;44.80;;;18.67;;
77415;SDS011;66489;49.230;8.520;2023-02-13T06:31:02;46.83;;;19.85;;
77415;SDS011;66489;49.230;8.520;2023-02-13T06:33:29;43.08;;;19.77;;
77415;SDS011;66489;49.230;8.520;2023-02-13T06:35:56;40.92;;;18.60;;
77415;SDS011;66489;49.230;8.520;2023-02-13T06:38:22;43.70;;;18.23;;
77415;SDS011;66489;49.230;8.520;2023-02-13T06:40:50;45.60;;;19.27;;
77415;SDS011;66489;49.230;8.520;2023-02-13T06:43:16;46.40;;;18.73;;
77415;SDS011;66489;49.230;8.520;2023-02-13T06:45:43;44.70;;;18.58;;
77415;SDS011;66489;49.230;8.520;2023-02-13T06:48:12;40.33;;;18.08;;
77415;SDS011;66489;49.230;8.520;2023-02-13T06:50:39;41.00;;;18.13;;
77415;SDS011;66489;49.230;8.520;2023-02-13T06:53:05;40.97;;;18.17;;
77415;SDS011;66489;49.230;8.520;2023-02-13T06:55:32;41.38;;;18.13;;
77415;SDS011;66489;49.230;8.520;2023-02-13T06:57:59;40.70;;;19.40;;
77415;SDS011;66489;49.230;8.520;2023-02-13T07:00:25;45.85;;;19.05;;
77415;SDS011;66489;49.230;8.520;2023-02-13T07:02:52;42.55;;;18.90;;
77415;SDS011;66489;49.230;8.520;2023-02-13T07:05:19;39.00;;;18.67;;
77415;SDS011;66489;49.230;8.520;2023-02-13T07:07:45;38.25;;;18.13;;
77415;SDS011;66489;49.230;8.520;2023-02-13T07:10:12;42.17;;;18.35;;
77415;SDS011;66489;49.230;8.520;2023-02-13T07:12:40;38.25;;;18.73;;
77415;SDS011;66489;49.230;8.520;2023-02-13T07:15:06;42.08;;;18.17;;
77415;SDS011;66489;49.230;8.520;2023-02-13T07:17:33;36.33;;;17.95;;
77415;SDS011;66489;49.230;8.520;2023-02-13T07:20:00;39.55;;;18.50;;
77415;SDS011;66489;49.230;8.520;2023-02-13T07:22:26;39.60;;;18.00;;
77415;SDS011;66489;49.230;8.520;2023-02-13T07:24:53;38.55;;;18.38;;
77415;SDS011;66489;49.230;8.520;2023-02-13T07:27:19;36.78;;;18.25;;
77415;SDS011;66489;49.230;8.520;2023-02-13T07:29:46;40.05;;;18.15;;
77415;SDS011;66489;49.230;8.520;2023-02-13T07:32:12;39.72;;;17.35;;
77415;SDS011;66489;49.230;8.520;2023-02-13T07:34:45;38.33;;;18.25;;
77415;SDS011;66489;49.230;8.520;2023-02-13T07:37:27;36.05;;;17.90;;
77415;SDS011;66489;49.230;8.520;2023-02-13T07:39:54;40.15;;;17.83;;
77415;SDS011;66489;49.230;8.520;2023-02-13T07:42:21;40.35;;;18.60;;
77415;SDS011;66489;49.230;8.520;2023-02-13T07:44:47;39.20;;;18.17;;
77415;SDS011;66489;49.230;8.520;2023-02-13T07:47:14;37.78;;;17.92;;
77415;SDS011;66489;49.230;8.520;2023-02-13T07:49:45;38.95;;;18.02;;
77415;SDS011;66489;49.230;8.520;2023-02-13T07:52:12;40.15;;;18.38;;
77415;SDS011;66489;49.230;8.520;2023-02-13T07:54:38;33.42;;;16.77;;
77415;SDS011;66489;49.230;8.520;2023-02-13T07:57:15;34.28;;;16.88;;
77415;SDS011;66489;49.230;8.520;2023-02-13T07:59:42;36.22;;;17.15;;
77415;SDS011;66489;49.230;8.520;2023-02-13T08:02:10;36.00;;;17.23;;
77415;SDS011;66489;49.230;8.520;2023-02-13T08:04:40;34.75;;;17.30;;
77415;SDS011;66489;49.230;8.520;2023-02-13T08:07:06;36.13;;;17.33;;
77415;SDS011;66489;49.230;8.520;2023-02-13T08:09:33;35.65;;;17.40;;
77415;SDS011;66489;49.230;8.520;2023-02-13T08:12:21;36.13;;;16.75;;
77415;SDS011;66489;49.230;8.520;2023-02-13T08:14:48;32.70;;;17.60;;
77415;SDS011;66489;49.230;8.520;2023-02-13T08:17:14;32.65;;;16.70;;
77415;SDS011;66489;49.230;8.520;2023-02-13T08:19:41;30.60;;;16.42;;
77415;SDS011;66489;49.230;8.520;2023-02-13T08:22:08;30.48;;;15.48;;
77415;SDS011;66489;49.230;8.520;2023-02-13T08:24:34;27.58;;;15.18;;
77415;SDS011;66489;49.230;8.520;2023-02-13T08:27:01;30.63;;;14.98;;
77415;SDS011;66489;49.230;8.520;2023-02-13T08:29:27;28.17;;;15.02;;
77415;SDS011;66489;49.230;8.520;2023-02-13T08:31:54;30.92;;;15.65;;
77415;SDS011;66489;49.230;8.520;2023-02-13T08:34:20;27.85;;;14.93;;
77415;SDS011;66489;49.230;8.520;2023-02-13T08:36:50;29.05;;;14.95;;
77415;SDS011;66489;49.230;8.520;2023-02-13T08:39:17;30.02;;;15.63;;
77415;SDS011;66489;49.230;8.520;2023-02-13T08:41:43;28.63;;;15.13;;
77415;SDS011;66489;49.230;8.520;2023-02-13T08:44:10;28.38;;;14.82;;
77415;SDS011;66489;49.230;8.520;2023-02-13T08:46:36;27.58;;;14.57;;
77415;SDS011;66489;49.230;8.520;2023-02-13T08:49:03;28.15;;;15.05;;
77415;SDS011;66489;49.230;8.520;2023-02-13T08:51:29;27.33;;;14.18;;
77415;SDS011;66489;49.230;8.520;2023-02-13T08:53:59;26.60;;;14.95;;
77415;SDS011;66489;49.230;8.520;2023-02-13T08:56:28;27.75;;;14.93;;
77415;SDS011;66489;49.230;8.520;2023-02-13T09:01:21;24.77;;;13.32;;
77415;SDS011;66489;49.230;8.520;2023-02-13T09:03:49;25.42;;;13.55;;
77415;SDS011;66489;49.230;8.520;2023-02-13T09:06:16;26.90;;;13.95;;
77415;SDS011;66489;49.230;8.520;2023-02-13T09:08:42;26.80;;;13.70;;
77415;SDS011;66489;49.230;8.520;2023-02-13T09:11:09;27.33;;;14.05;;
77415;SDS011;66489;49.230;8.520;2023-02-13T09:13:35;25.13;;;14.27;;
77415;SDS011;66489;49.230;8.520;2023-02-13T09:16:03;26.48;;;14.50;;
77415;SDS011;66489;49.230;8.520;2023-02-13T09:18:34;26.77;;;14.07;;
77415;SDS011;66489;49.230;8.520;2023-02-13T09:21:05;24.67;;;13.73;;
77415;SDS011;66489;49.230;8.520;2023-02-13T09:23:33;25.27;;;13.80;;
77415;SDS011;66489;49.230;8.520;2023-02-13T09:26:01;20.97;;;13.37;;
77415;SDS011;66489;49.230;8.520;2023-02-13T09:28:29;23.52;;;12.88;;
77415;SDS011;66489;49.230;8.520;2023-02-13T09:30:57;24.63;;;13.57;;
77415;SDS011;66489;49.230;8.520;2023-02-13T09:33:24;21.77;;;12.55;;
77415;SDS011;66489;49.230;8.520;2023-02-13T09:35:51;22.42;;;12.30;;
77415;SDS011;66489;49.230;8.520;2023-02-13T09:38:18;21.40;;;11.90;;
77415;SDS011;66489;49.230;8.520;2023-02-13T09:40:49;22.25;;;12.68;;
77415;SDS011;66489;49.230;8.520;2023-02-13T09:43:28;19.25;;;11.52;;
77415;SDS011;66489;49.230;8.520;2023-02-13T09:45:58;19.42;;;11.15;;
77415;SDS011;66489;49.230;8.520;2023-02-13T09:48:28;19.58;;;11.70;;
77415;SDS011;66489;49.230;8.520;2023-02-13T09:53:23;20.10;;;11.35;;
77415;SDS011;66489;49.230;8.520;2023-02-13T09:56:06;19.03;;;11.63;;
77415;SDS011;66489;49.230;8.520;2023-02-13T10:01:39;21.27;;;12.15;;
77415;SDS011;66489;49.230;8.520;2023-02-13T10:07:05;19.00;;;10.57;;
77415;SDS011;66489;49.230;8.520;2023-02-13T10:09:41;18.77;;;10.98;;
77415;SDS011;66489;49.230;8.520;2023-02-13T10:17:47;28.95;;;19.60;;
77415;SDS011;66489;49.230;8.520;2023-02-13T10:20:24;18.05;;;10.65;;
77415;SDS011;66489;49.230;8.520;2023-02-13T10:25:56;16.88;;;10.32;;
77415;SDS011;66489;49.230;8.520;2023-02-13T10:28:33;15.57;;;9.57;;
77415;SDS011;66489;49.230;8.520;2023-02-13T10:31:04;15.23;;;9.07;;
77415;SDS011;66489;49.230;8.520;2023-02-13T10:33:35;14.75;;;9.23;;
77415;SDS011;66489;49.230;8.520;2023-02-13T10:41:23;16.88;;;9.43;;
77415;SDS011;66489;49.230;8.520;2023-02-13T10:52:50;17.25;;;10.57;;
77415;SDS011;66489;49.230;8.520;2023-02-13T11:00:21;13.00;;;8.50;;
77415;SDS011;66489;49.230;8.520;2023-02-13T11:02:54;13.52;;;8.40;;
77415;SDS011;66489;49.230;8.520;2023-02-13T11:05:22;13.10;;;8.15;;
77415;SDS011;66489;49.230;8.520;2023-02-13T11:07:50;13.70;;;8.45;;
77415;SDS011;66489;49.230;8.520;2023-02-13T11:10:21;12.48;;;7.68;;
77415;SDS011;66489;49.230;8.520;2023-02-13T11:12:49;13.70;;;8.48;;
77415;SDS011;66489;49.230;8.520;2023-02-13T11:15:26;14.80;;;8.05;;
77415;SDS011;66489;49.230;8.520;2023-02-13T11:18:40;14.18;;;7.97;;
77415;SDS011;66489;49.230;8.520;2023-02-13T11:20:45;13.00;;;7.43;;
77415;SDS011;66489;49.230;8.520;2023-02-13T11:23:23;12.82;;;7.55;;
77415;SDS011;66489;49.230;8.520;2023-02-13T11:25:59;12.80;;;7.55;;
77415;SDS011;66489;49.230;8.520;2023-02-13T11:28:26;11.77;;;7.75;;
77415;SDS011;66489;49.230;8.520;2023-02-13T11:31:18;12.23;;;7.18;;
77415;SDS011;66489;49.230;8.520;2023-02-13T11:33:47;12.32;;;7.30;;
77415;SDS011;66489;49.230;8.520;2023-02-13T11:36:15;10.63;;;6.45;;
77415;SDS011;66489;49.230;8.520;2023-02-13T11:38:43;12.23;;;7.43;;
77415;SDS011;66489;49.230;8.520;2023-02-13T11:41:10;11.02;;;7.05;;
77415;SDS011;66489;49.230;8.520;2023-02-13T11:46:20;12.85;;;7.75;;
77415;SDS011;66489;49.230;8.520;2023-02-13T11:49:14;10.32;;;6.88;;
77415;SDS011;66489;49.230;8.520;2023-02-13T11:57:01;10.40;;;6.65;;
77415;SDS011;66489;49.230;8.520;2023-02-13T11:59:31;11.00;;;6.80;;
77415;SDS011;66489;49.230;8.520;2023-02-13T12:04:51;10.88;;;7.07;;
77415;SDS011;66489;49.230;8.520;2023-02-13T12:07:37;11.40;;;7.13;;
77415;SDS011;66489;49.230;8.520;2023-02-13T12:10:24;11.23;;;6.90;;
77415;SDS011;66489;49.230;8.520;2023-02-13T12:18:39;10.27;;;6.45;;
77415;SDS011;66489;49.230;8.520;2023-02-13T12:20:59;11.45;;;7.60;;
77415;SDS011;66489;49.230;8.520;2023-02-13T12:31:58;10.38;;;6.65;;
77415;SDS011;66489;49.230;8.520;2023-02-13T12:38:00;10.10;;;6.43;;
77415;SDS011;66489;49.230;8.520;2023-02-13T12:40:12;10.15;;;6.65;;
77415;SDS011;66489;49.230;8.520;2023-02-13T12:45:48;9.88;;;6.13;;
77415;SDS011;66489;49.230;8.520;2023-02-13T12:54:17;10.00;;;6.40;;
77415;SDS011;66489;49.230;8.520;2023-02-13T13:14:13;8.10;;;5.80;;
77415;SDS011;66489;49.230;8.520;2023-02-13T13:16:47;9.50;;;6.93;;
77415;SDS011;66489;49.230;8.520;2023-02-13T13:19:20;8.20;;;5.93;;
77415;SDS011;66489;49.230;8.520;2023-02-13T13:22:04;9.48;;;6.60;;
77415;SDS011;66489;49.230;8.520;2023-02-13T13:24:40;8.13;;;6.07;;
77415;SDS011;66489;49.230;8.520;2023-02-13T13:27:17;10.02;;;6.15;;
77415;SDS011;66489;49.230;8.520;2023-02-13T13:29:49;9.60;;;6.70;;
77415;SDS011;66489;49.230;8.520;2023-02-13T13:32:20;10.82;;;6.55;;
77415;SDS011;66489;49.230;8.520;2023-02-13T13:34:47;9.43;;;6.53;;
77415;SDS011;66489;49.230;8.520;2023-02-13T13:42:23;9.73;;;7.15;;
77415;SDS011;66489;49.230;8.520;2023-02-13T13:50:34;8.27;;;6.20;;
77415;SDS011;66489;49.230;8.520;2023-02-13T14:03:57;8.70;;;5.70;;
77415;SDS011;66489;49.230;8.520;2023-02-13T14:11:54;9.82;;;5.57;;
77415;SDS011;66489;49.230;8.520;2023-02-13T14:16:56;7.78;;;5.65;;
77415;SDS011;66489;49.230;8.520;2023-02-13T14:19:36;9.07;;;6.38;;
77415;SDS011;66489;49.230;8.520;2023-02-13T14:24:50;8.88;;;6.07;;
77415;SDS011;66489;49.230;8.520;2023-02-13T14:27:19;8.32;;;5.82;;
77415;SDS011;66489;49.230;8.520;2023-02-13T14:29:50;9.77;;;6.63;;
77415;SDS011;66489;49.230;8.520;2023-02-13T14:35:31;10.82;;;6.53;;
77415;SDS011;66489;49.230;8.520;2023-02-13T14:37:51;10.18;;;6.70;;
77415;SDS011;66489;49.230;8.520;2023-02-13T14:42:50;10.70;;;6.22;;
77415;SDS011;66489;49.230;8.520;2023-02-13T14:45:21;9.98;;;6.65;;
77415;SDS011;66489;49.230;8.520;2023-02-13T14:47:53;9.63;;;6.90;;
77415;SDS011;66489;49.230;8.520;2023-02-13T14:50:28;10.65;;;6.72;;
77415;SDS011;66489;49.230;8.520;2023-02-13T14:52:58;11.25;;;7.35;;
77415;SDS011;66489;49.230;8.520;2023-02-13T14:58:07;10.65;;;6.57;;
77415;SDS011;66489;49.230;8.520;2023-02-13T15:00:42;11.40;;;7.20;;
77415;SDS011;66489;49.230;8.520;2023-02-13T15:03:28;9.73;;;6.68;;
77415;SDS011;66489;49.230;8.520;2023-02-13T15:06:00;12.68;;;7.47;;
77415;SDS011;66489;49.230;8.520;2023-02-13T15:08:47;12.60;;;7.97;;
77415;SDS011;66489;49.230;8.520;2023-02-13T15:16:42;11.88;;;7.65;;
77415;SDS011;66489;49.230;8.520;2023-02-13T15:19:17;11.00;;;6.97;;
77415;SDS011;66489;49.230;8.520;2023-02-13T15:21:50;13.20;;;8.07;;
77415;SDS011;66489;49.230;8.520;2023-02-13T15:24:18;12.40;;;8.23;;
77415;SDS011;66489;49.230;8.520;2023-02-13T15:26:49;11.38;;;6.97;;
77415;SDS011;66489;49.230;8.520;2023-02-13T15:29:18;11.45;;;7.60;;
77415;SDS011;66489;49.230;8.520;2023-02-13T15:34:27;10.80;;;6.88;;
77415;SDS011;66489;49.230;8.520;2023-02-13T15:36:57;10.85;;;7.25;;
77415;SDS011;66489;49.230;8.520;2023-02-13T15:39:25;13.88;;;8.48;;
77415;SDS011;66489;49.230;8.520;2023-02-13T15:42:12;13.38;;;8.40;;
77415;SDS011;66489;49.230;8.520;2023-02-13T15:44:38;15.50;;;10.82;;
77415;SDS011;66489;49.230;8.520;2023-02-13T15:47:27;13.77;;;9.07;;
77415;SDS011;66489;49.230;8.520;2023-02-13T15:49:53;12.55;;;8.18;;
77415;SDS011;66489;49.230;8.520;2023-02-13T15:55:18;11.25;;;6.93;;
77415;SDS011;66489;49.230;8.520;2023-02-13T15:57:46;11.90;;;7.75;;
77415;SDS011;66489;49.230;8.520;2023-02-13T16:00:23;12.35;;;7.28;;
77415;SDS011;66489;49.230;8.520;2023-02-13T16:02:55;11.65;;;7.07;;
77415;SDS011;66489;49.230;8.520;2023-02-13T16:05:24;11.57;;;7.50;;
77415;SDS011;66489;49.230;8.520;2023-02-13T16:16:40;21.90;;;15.07;;
77415;SDS011;66489;49.230;8.520;2023-02-13T16:21:55;17.35;;;12.90;;
77415;SDS011;66489;49.230;8.520;2023-02-13T16:24:23;19.63;;;14.13;;
77415;SDS011;66489;49.230;8.520;2023-02-13T16:26:50;28.08;;;19.63;;
77415;SDS011;66489;49.230;8.520;2023-02-13T16:29:18;19.27;;;10.98;;
77415;SDS011;66489;49.230;8.520;2023-02-13T16:31:47;23.65;;;15.07;;
77415;SDS011;66489;49.230;8.520;2023-02-13T16:36:51;32.80;;;24.95;;
77415;SDS011;66489;49.230;8.520;2023-02-13T16:39:25;22.27;;;15.15;;
77415;SDS011;66489;49.230;8.520;2023-02-13T16:41:52;17.77;;;13.50;;
77415;SDS011;66489;49.230;8.520;2023-02-13T16:44:26;21.88;;;14.75;;
77415;SDS011;66489;49.230;8.520;2023-02-13T16:49:27;19.92;;;13.50;;
77415;SDS011;66489;49.230;8.520;2023-02-13T17:02:14;15.23;;;10.15;;
77415;SDS011;66489;49.230;8.520;2023-02-13T17:04:43;26.77;;;15.38;;
77415;SDS011;66489;49.230;8.520;2023-02-13T17:07:21;36.90;;;23.48;;
77415;SDS011;66489;49.230;8.520;2023-02-13T17:09:54;17.80;;;11.77;;
77415;SDS011;66489;49.230;8.520;2023-02-13T17:12:21;17.92;;;8.32;;
77415;SDS011;66489;49.230;8.520;2023-02-13T17:14:48;17.63;;;10.27;;
77415;SDS011;66489;49.230;8.520;2023-02-13T17:17:16;10.35;;;6.85;;
77415;SDS011;66489;49.230;8.520;2023-02-13T17:19:45;15.82;;;8.07;;
77415;SDS011;66489;49.230;8.520;2023-02-13T17:22:26;15.57;;;8.85;;
77415;SDS011;66489;49.230;8.520;2023-02-13T17:24:57;19.23;;;7.15;;
77415;SDS011;66489;49.230;8.520;2023-02-13T17:27:24;13.35;;;7.72;;
77415;SDS011;66489;49.230;8.520;2023-02-13T17:29:51;13.90;;;8.32;;
77415;SDS011;66489;49.230;8.520;2023-02-13T17:32:18;11.93;;;7.88;;
77415;SDS011;66489;49.230;8.520;2023-02-13T17:34:46;15.15;;;8.80;;
77415;SDS011;66489;49.230;8.520;2023-02-13T17:37:20;13.32;;;7.97;;
77415;SDS011;66489;49.230;8.520;2023-02-13T17:39:47;10.68;;;7.00;;
77415;SDS011;66489;49.230;8.520;2023-02-13T17:42:15;13.10;;;9.05;;
77415;SDS011;66489;49.230;8.520;2023-02-13T17:44:46;10.85;;;8.07;;
77415;SDS011;66489;49.230;8.520;2023-02-13T17:47:16;11.85;;;6.45;;
77415;SDS011;66489;49.230;8.520;2023-02-13T17:49:43;14.77;;;9.10;;
77415;SDS011;66489;49.230;8.520;2023-02-13T17:52:11;13.65;;;9.63;;
77415;SDS011;66489;49.230;8.520;2023-02-13T17:54:46;13.70;;;9.88;;
77415;SDS011;66489;49.230;8.520;2023-02-13T17:57:14;13.02;;;9.90;;
77415;SDS011;66489;49.230;8.520;2023-02-13T17:59:42;14.85;;;9.65;;
77415;SDS011;66489;49.230;8.520;2023-02-13T18:02:13;13.95;;;9.00;;
77415;SDS011;66489;49.230;8.520;2023-02-13T18:04:44;16.08;;;8.98;;
77415;SDS011;66489;49.230;8.520;2023-02-13T18:07:12;11.82;;;7.32;;
77415;SDS011;66489;49.230;8.520;2023-02-13T18:09:40;14.43;;;7.37;;
77415;SDS011;66489;49.230;8.520;2023-02-13T18:12:10;12.05;;;7.50;;
77415;SDS011;66489;49.230;8.520;2023-02-13T18:14:41;13.88;;;8.52;;
77415;SDS011;66489;49.230;8.520;2023-02-13T18:17:08;16.05;;;10.15;;
77415;SDS011;66489;49.230;8.520;2023-02-13T18:19:35;14.65;;;9.82;;
77415;SDS011;66489;49.230;8.520;2023-02-13T18:22:03;30.00;;;17.35;;
77415;SDS011;66489;49.230;8.520;2023-02-13T18:24:30;28.95;;;18.33;;
77415;SDS011;66489;49.230;8.520;2023-02-13T18:26:58;32.47;;;21.45;;
77415;SDS011;66489;49.230;8.520;2023-02-13T18:29:25;39.03;;;24.30;;
77415;SDS011;66489;49.230;8.520;2023-02-13T18:31:53;58.60;;;36.20;;
77415;SDS011;66489;49.230;8.520;2023-02-13T18:34:21;80.43;;;43.50;;
77415;SDS011;66489;49.230;8.520;2023-02-13T18:36:49;94.80;;;46.58;;
77415;SDS011;66489;49.230;8.520;2023-02-13T18:39:16;87.70;;;47.25;;
77415;SDS011;66489;49.230;8.520;2023-02-13T18:41:43;81.88;;;42.53;;
77415;SDS011;66489;49.230;8.520;2023-02-13T18:44:10;74.43;;;38.97;;
77415;SDS011;66489;49.230;8.520;2023-02-13T18:46:48;66.05;;;38.08;;
77415;SDS011;66489;49.230;8.520;2023-02-13T18:49:15;50.75;;;30.70;;
77415;SDS011;66489;49.230;8.520;2023-02-13T18:51:41;35.70;;;22.67;;
77415;SDS011;66489;49.230;8.520;2023-02-13T18:54:09;28.90;;;17.85;;
77415;SDS011;66489;49.230;8.520;2023-02-13T18:56:36;27.88;;;16.75;;
77415;SDS011;66489;49.230;8.520;2023-02-13T18:59:03;31.27;;;18.73;;
77415;SDS011;66489;49.230;8.520;2023-02-13T19:01:30;26.75;;;17.17;;
77415;SDS011;66489;49.230;8.520;2023-02-13T19:03:57;19.23;;;12.48;;
77415;SDS011;66489;49.230;8.520;2023-02-13T19:06:24;21.15;;;12.80;;
77415;SDS011;66489;49.230;8.520;2023-02-13T19:08:54;18.67;;;11.52;;
77415;SDS011;66489;49.230;8.520;2023-02-13T19:11:21;23.30;;;14.20;;
77415;SDS011;66489;49.230;8.520;2023-02-13T19:13:56;21.70;;;14.73;;
77415;SDS011;66489;49.230;8.520;2023-02-13T19:16:26;21.33;;;14.10;;
77415;SDS011;66489;49.230;8.520;2023-02-13T19:18:57;22.57;;;14.20;;
77415;SDS011;66489;49.230;8.520;2023-02-13T19:21:28;23.90;;;13.50;;
77415;SDS011;66489;49.230;8.520;2023-02-13T19:23:56;19.02;;;12.38;;
77415;SDS011;66489;49.230;8.520;2023-02-13T19:26:24;18.08;;;11.45;;
77415;SDS011;66489;49.230;8.520;2023-02-13T19:28:51;17.97;;;10.93;;
77415;SDS011;66489;49.230;8.520;2023-02-13T19:31:20;20.48;;;12.65;;
77415;SDS011;66489;49.230;8.520;2023-02-13T19:36:16;22.80;;;13.48;;
77415;SDS011;66489;49.230;8.520;2023-02-13T19:38:52;20.02;;;13.32;;
77415;SDS011;66489;49.230;8.520;2023-02-13T19:41:31;19.23;;;12.45;;
77415;SDS011;66489;49.230;8.520;2023-02-13T19:43:58;19.73;;;13.13;;
77415;SDS011;66489;49.230;8.520;2023-02-13T19:46:28;21.58;;;12.15;;
77415;SDS011;66489;49.230;8.520;2023-02-13T19:48:59;18.60;;;12.05;;
77415;SDS011;66489;49.230;8.520;2023-02-13T19:51:33;23.77;;;15.13;;
77415;SDS011;66489;49.230;8.520;2023-02-13T19:54:06;23.35;;;14.63;;
77415;SDS011;66489;49.230;8.520;2023-02-13T19:56:37;25.65;;;15.75;;
77415;SDS011;66489;49.230;8.520;2023-02-13T19:59:06;25.35;;;14.43;;
77415;SDS011;66489;49.230;8.520;2023-02-13T20:01:35;22.20;;;13.70;;
77415;SDS011;66489;49.230;8.520;2023-02-13T20:04:05;20.33;;;12.82;;
77415;SDS011;66489;49.230;8.520;2023-02-13T20:06:33;23.40;;;13.40;;
77415;SDS011;66489;49.230;8.520;2023-02-13T20:09:06;25.50;;;14.27;;
77415;SDS011;66489;49.230;8.520;2023-02-13T20:11:34;30.85;;;16.13;;
77415;SDS011;66489;49.230;8.520;2023-02-13T20:14:02;30.77;;;16.55;;
77415;SDS011;66489;49.230;8.520;2023-02-13T20:16:30;33.88;;;16.55;;
77415;SDS011;66489;49.230;8.520;2023-02-13T20:19:03;34.38;;;17.20;;
77415;SDS011;66489;49.230;8.520;2023-02-13T20:21:33;34.78;;;17.90;;
77415;SDS011;66489;49.230;8.520;2023-02-13T20:24:00;35.00;;;19.02;;
77415;SDS011;66489;49.230;8.520;2023-02-13T20:26:28;31.60;;;18.08;;
77415;SDS011;66489;49.230;8.520;2023-02-13T20:28:55;27.02;;;16.75;;
77415;SDS011;66489;49.230;8.520;2023-02-13T20:31:28;22.95;;;14.68;;
77415;SDS011;66489;49.230;8.520;2023-02-13T20:33:56;22.67;;;13.68;;
77415;SDS011;66489;49.230;8.520;2023-02-13T20:36:24;21.52;;;12.45;;
77415;SDS011;66489;49.230;8.520;2023-02-13T20:38:59;23.38;;;12.75;;
77415;SDS011;66489;49.230;8.520;2023-02-13T20:41:28;26.75;;;15.38;;
77415;SDS011;66489;49.230;8.520;2023-02-13T20:46:24;30.15;;;15.88;;
77415;SDS011;66489;49.230;8.520;2023-02-13T20:48:51;33.70;;;18.17;;
77415;SDS011;66489;49.230;8.520;2023-02-13T20:51:18;24.38;;;13.43;;
77415;SDS011;66489;49.230;8.520;2023-02-13T20:53:45;27.85;;;14.73;;
77415;SDS011;66489;49.230;8.520;2023-02-13T20:56:16;25.92;;;14.73;;
77415;SDS011;66489;49.230;8.520;2023-02-13T20:58:46;28.35;;;15.80;;
77415;SDS011;66489;49.230;8.520;2023-02-13T21:01:15;25.73;;;14.95;;
77415;SDS011;66489;49.230;8.520;2023-02-13T21:04:06;25.00;;;13.70;;
77415;SDS011;66489;49.230;8.520;2023-02-13T21:06:36;20.83;;;12.45;;
77415;SDS011;66489;49.230;8.520;2023-02-13T21:09:04;27.45;;;15.95;;
77415;SDS011;66489;49.230;8.520;2023-02-13T21:11:34;26.00;;;14.27;;
77415;SDS011;66489;49.230;8.520;2023-02-13T21:14:01;26.33;;;15.20;;
77415;SDS011;66489;49.230;8.520;2023-02-13T21:16:30;26.90;;;15.55;;
77415;SDS011;66489;49.230;8.520;2023-02-13T21:19:00;25.50;;;14.25;;
77415;SDS011;66489;49.230;8.520;2023-02-13T21:21:32;25.02;;;13.43;;
77415;SDS011;66489;49.230;8.520;2023-02-13T21:24:06;26.88;;;14.52;;
77415;SDS011;66489;49.230;8.520;2023-02-13T21:26:35;29.23;;;16.40;;
77415;SDS011;66489;49.230;8.520;2023-02-13T21:29:04;28.83;;;16.40;;
77415;SDS011;66489;49.230;8.520;2023-02-13T21:31:37;27.70;;;14.80;;
77415;SDS011;66489;49.230;8.520;2023-02-13T21:34:11;26.70;;;15.25;;
77415;SDS011;66489;49.230;8.520;2023-02-13T21:36:48;30.33;;;16.10;;
77415;SDS011;66489;49.230;8.520;2023-02-13T21:39:16;29.73;;;15.02;;
77415;SDS011;66489;49.230;8.520;2023-02-13T21:41:44;27.70;;;14.25;;
77415;SDS011;66489;49.230;8.520;2023-02-13T21:44:12;25.47;;;14.30;;
77415;SDS011;66489;49.230;8.520;2023-02-13T21:46:42;27.25;;;14.20;;
77415;SDS011;66489;49.230;8.520;2023-02-13T21:49:16;27.83;;;14.50;;
77415;SDS011;66489;49.230;8.520;2023-02-13T21:51:43;25.73;;;13.65;;
77415;SDS011;66489;49.230;8.520;2023-02-13T21:54:11;21.05;;;11.90;;
77415;SDS011;66489;49.230;8.520;2023-02-13T21:56:40;22.20;;;12.18;;
77415;SDS011;66489;49.230;8.520;2023-02-13T21:59:09;20.70;;;12.45;;
